Time;durP1;ratioP1;P1;durP2;ratioP2;P2;SDS_P1;SDS_P2;PMS_P1;PMS_P2;Temp;Humidity;BMP_temperature;BMP_pressure;BME280_temperature;BME280_humidity;BME280_pressure;Samples;Min_cycle;Max_cycle;Signal;HPM_P1;HPM_P2
2022/10/16 00:00:45;;;;;;;6.70;3.97;;;;;;;7.84;91.82;95287.59;5091583;28;20225;-71
2022/10/16 00:03:12;;;;;;;9.70;5.57;;;;;;;7.79;92.08;95290.34;5110170;28;20234;-71
2022/10/16 00:05:41;;;;;;;12.85;4.28;;;;;;;7.68;92.10;95280.81;5102510;28;20234;-72
2022/10/16 00:08:08;;;;;;;6.90;3.97;;;;;;;7.75;91.76;95291.25;5092630;28;20260;-71
2022/10/16 00:10:35;;;;;;;11.32;7.25;;;;;;;7.77;91.00;95294.47;5110557;28;20656;-72
2022/10/16 00:13:03;;;;;;;13.32;7.30;;;;;;;7.66;90.89;95299.19;5110588;28;20310;-72
2022/10/16 00:15:30;;;;;;;16.63;8.95;;;;;;;7.61;91.43;95301.97;5100113;28;20244;-72
2022/10/16 00:17:57;;;;;;;11.63;7.57;;;;;;;7.56;91.91;95299.34;5107306;28;20254;-72
2022/10/16 00:20:24;;;;;;;9.88;6.53;;;;;;;7.55;92.10;95303.13;5110552;28;20295;-72
2022/10/16 00:22:51;;;;;;;10.50;5.95;;;;;;;7.52;91.75;95303.72;5096499;28;20202;-72
2022/10/16 00:25:17;;;;;;;11.73;6.75;;;;;;;7.45;91.30;95292.50;5100700;28;20625;-72
2022/10/16 00:27:44;;;;;;;11.35;7.07;;;;;;;7.48;91.14;95308.09;5109745;28;20586;-72
2022/10/16 00:30:12;;;;;;;10.15;6.97;;;;;;;7.44;91.28;95307.06;5110024;28;20205;-72
2022/10/16 00:32:39;;;;;;;6.90;3.83;;;;;;;7.41;91.29;95313.03;5110536;28;20205;-72
2022/10/16 00:35:06;;;;;;;8.90;3.35;;;;;;;7.42;90.92;95315.44;5109579;28;20258;-72
2022/10/16 00:37:33;;;;;;;8.50;3.85;;;;;;;7.39;90.99;95316.00;5110121;28;20262;-72
2022/10/16 00:40:00;;;;;;;7.93;3.20;;;;;;;7.30;91.30;95319.66;5110072;28;20282;-72
2022/10/16 00:42:27;;;;;;;5.63;3.33;;;;;;;7.32;90.76;95320.19;5091970;28;20256;-72
2022/10/16 00:44:56;;;;;;;12.55;3.42;;;;;;;7.30;90.99;95322.34;5101057;28;20206;-72
2022/10/16 00:47:28;;;;;;;6.60;3.78;;;;;;;7.25;91.69;95325.09;5109911;28;20660;-72
2022/10/16 00:50:01;;;;;;;7.13;3.72;;;;;;;7.32;91.51;95314.78;5110470;28;20205;-72
2022/10/16 00:52:29;;;;;;;6.80;3.33;;;;;;;7.29;91.52;95312.66;5110525;28;20229;-72
2022/10/16 00:54:57;;;;;;;6.80;4.28;;;;;;;7.23;92.11;95311.94;5109652;28;20237;-72
2022/10/16 00:57:24;;;;;;;6.07;3.28;;;;;;;7.31;92.04;95313.19;5110340;28;20241;-72
2022/10/16 00:59:51;;;;;;;7.15;3.80;;;;;;;7.19;91.71;95310.09;5109341;28;20232;-72
2022/10/16 01:02:18;;;;;;;10.00;5.03;;;;;;;7.02;93.06;95311.38;5089073;28;20294;-72
2022/10/16 01:04:50;;;;;;;7.45;3.70;;;;;;;7.09;92.92;95317.22;5102935;28;20201;-72
2022/10/16 01:07:37;;;;;;;8.00;4.22;;;;;;;7.05;92.93;95326.97;5109233;28;20206;-72
2022/10/16 01:10:12;;;;;;;12.57;5.53;;;;;;;7.08;92.52;95325.59;5109239;28;20689;-72
2022/10/16 01:12:46;;;;;;;11.25;7.47;;;;;;;7.34;91.50;95323.38;5109294;28;20201;-72
2022/10/16 01:15:20;;;;;;;11.30;7.20;;;;;;;7.38;92.00;95324.41;5101470;28;20243;-71
2022/10/16 01:17:53;;;;;;;12.52;6.55;;;;;;;7.22;93.57;95326.50;5105082;28;20655;-71
2022/10/16 01:20:28;;;;;;;12.05;6.93;;;;;;;7.18;94.07;95319.28;5109572;28;20695;-71
2022/10/16 01:23:08;;;;;;;5.55;3.50;;;;;;;7.04;94.64;95314.59;5095008;28;20201;-71
2022/10/16 01:25:56;;;;;;;5.43;2.78;;;;;;;7.01;94.82;95317.84;5101750;28;20612;-71
2022/10/16 01:28:30;;;;;;;5.32;2.80;;;;;;;7.02;94.76;95310.56;5109337;28;20236;-71
2022/10/16 01:30:59;;;;;;;5.93;2.97;;;;;;;7.18;94.31;95313.88;5105524;28;20194;-71
2022/10/16 01:33:31;;;;;;;7.05;3.65;;;;;;;7.18;93.62;95309.31;5088562;28;20202;-71
2022/10/16 01:36:03;;;;;;;7.72;3.67;;;;;;;7.09;93.75;95311.03;5107138;28;20209;-71
2022/10/16 01:38:35;;;;;;;9.52;4.55;;;;;;;7.03;94.18;95309.50;5109768;28;20193;-72
2022/10/16 01:41:08;;;;;;;5.38;2.63;;;;;;;7.02;93.85;95307.88;5109575;28;20277;-72
2022/10/16 01:43:41;;;;;;;8.70;3.65;;;;;;;6.94;93.75;95308.53;5109406;28;20225;-72
2022/10/16 01:46:10;;;;;;;5.80;2.53;;;;;;;6.90;93.98;95312.88;5109625;28;20726;-72
2022/10/16 01:48:38;;;;;;;5.50;2.88;;;;;;;6.89;93.86;95305.88;5109247;28;20237;-72
2022/10/16 01:51:08;;;;;;;3.75;2.53;;;;;;;6.90;93.87;95313.69;5109185;28;20235;-72
2022/10/16 01:53:35;;;;;;;3.95;2.75;;;;;;;6.77;93.88;95315.19;5109004;28;20648;-72
2022/10/16 01:56:05;;;;;;;7.10;2.67;;;;;;;6.68;94.39;95316.91;5109275;28;20605;-72
2022/10/16 01:58:37;;;;;;;5.60;2.88;;;;;;;6.69;94.45;95321.19;5092113;28;20276;-72
2022/10/16 02:01:08;;;;;;;8.25;3.08;;;;;;;6.55;94.70;95322.16;5100099;28;20317;-72
2022/10/16 02:03:37;;;;;;;3.42;2.47;;;;;;;6.46;94.55;95318.47;5108866;28;20329;-72
2022/10/16 02:06:04;;;;;;;4.68;2.55;;;;;;;6.36;94.13;95320.19;5097162;28;20207;-72
2022/10/16 02:08:32;;;;;;;6.43;3.05;;;;;;;6.46;94.20;95327.34;5093843;28;20514;-72
2022/10/16 02:11:00;;;;;;;6.50;3.40;;;;;;;6.51;93.10;95331.88;5109341;28;20197;-72
2022/10/16 02:13:32;;;;;;;5.90;2.75;;;;;;;6.52;92.75;95336.19;5109014;28;20225;-72
2022/10/16 02:16:00;;;;;;;3.70;2.33;;;;;;;6.58;92.36;95340.41;5095725;28;20273;-72
2022/10/16 02:18:29;;;;;;;6.70;2.45;;;;;;;6.58;92.43;95338.53;5112600;28;20664;-72
2022/10/16 02:21:00;;;;;;;3.38;2.60;;;;;;;6.64;92.11;95341.97;5112755;28;20257;-72
2022/10/16 02:23:36;;;;;;;4.43;2.88;;;;;;;6.66;92.37;95353.25;5093515;28;20198;-72
2022/10/16 02:26:08;;;;;;;3.53;2.30;;;;;;;6.69;92.27;95341.94;5095450;28;20189;-72
2022/10/16 02:28:41;;;;;;;3.88;3.03;;;;;;;6.75;92.12;95349.66;5112311;28;20222;-72
2022/10/16 02:31:12;;;;;;;3.70;2.58;;;;;;;6.80;91.70;95345.31;5112003;28;20193;-71
2022/10/16 02:33:41;;;;;;;5.07;3.05;;;;;;;6.69;91.34;95350.00;5099078;28;20314;-72
2022/10/16 02:36:09;;;;;;;5.32;3.67;;;;;;;6.62;92.01;95344.16;5097869;28;20673;-72
2022/10/16 02:38:36;;;;;;;5.15;3.13;;;;;;;6.55;92.18;95346.38;5111860;28;20201;-72
2022/10/16 02:41:05;;;;;;;4.95;3.45;;;;;;;6.51;92.20;95340.75;5112537;28;20265;-72
2022/10/16 02:43:33;;;;;;;7.38;3.38;;;;;;;6.49;92.65;95344.81;5112203;28;20776;-71
2022/10/16 02:45:59;;;;;;;4.95;2.95;;;;;;;6.57;92.36;95347.69;5112162;28;20647;-71
2022/10/16 02:48:27;;;;;;;5.53;3.17;;;;;;;6.55;92.42;95354.47;5111931;28;20266;-71
2022/10/16 02:50:54;;;;;;;5.13;2.85;;;;;;;6.55;92.62;95351.78;5112152;28;20286;-71
2022/10/16 02:53:21;;;;;;;5.22;3.67;;;;;;;6.48;92.29;95359.34;5097497;28;20258;-71
2022/10/16 02:55:47;;;;;;;3.72;2.55;;;;;;;6.36;92.75;95363.22;5099944;28;20262;-71
2022/10/16 02:58:14;;;;;;;8.00;3.78;;;;;;;6.36;92.83;95363.22;5112046;28;20645;-71
2022/10/16 03:00:41;;;;;;;5.28;3.30;;;;;;;6.43;92.87;95363.69;5103207;28;20268;-71
2022/10/16 03:03:08;;;;;;;6.13;3.47;;;;;;;6.39;93.08;95372.63;5093152;28;20300;-71
2022/10/16 03:05:36;;;;;;;4.35;3.05;;;;;;;6.39;93.60;95372.63;5111453;28;20237;-72
2022/10/16 03:08:03;;;;;;;8.75;3.53;;;;;;;6.39;94.14;95368.06;5112103;28;20237;-71
2022/10/16 03:10:29;;;;;;;9.18;6.22;;;;;;;6.42;94.22;95367.47;5110916;28;20254;-71
2022/10/16 03:12:56;;;;;;;6.45;3.90;;;;;;;6.41;93.92;95365.88;5112030;28;20508;-72
2022/10/16 03:15:23;;;;;;;5.65;2.63;;;;;;;6.41;93.45;95375.84;5111825;28;20261;-72
2022/10/16 03:17:49;;;;;;;4.10;3.17;;;;;;;6.41;93.79;95375.84;5097419;28;20203;-72
2022/10/16 03:20:16;;;;;;;5.95;3.53;;;;;;;6.41;93.64;95381.22;5111337;28;20645;-72
2022/10/16 03:22:44;;;;;;;7.15;3.42;;;;;;;6.40;93.57;95385.00;5098689;28;20199;-72
2022/10/16 03:25:11;;;;;;;6.25;3.38;;;;;;;6.38;93.60;95371.81;5091007;28;20568;-72
2022/10/16 03:27:38;;;;;;;6.28;3.05;;;;;;;6.47;93.63;95379.28;5093738;28;20314;-72
2022/10/16 03:30:05;;;;;;;4.93;2.70;;;;;;;6.48;93.35;95387.06;5110853;28;20266;-72
2022/10/16 03:32:32;;;;;;;6.30;2.88;;;;;;;6.47;93.48;95384.66;5111701;28;20218;-72
2022/10/16 03:34:58;;;;;;;5.72;2.95;;;;;;;6.48;93.39;95386.28;5111068;28;20258;-72
2022/10/16 03:37:25;;;;;;;8.60;3.47;;;;;;;6.43;93.90;95389.78;5110823;28;20201;-71
2022/10/16 03:39:54;;;;;;;8.57;3.55;;;;;;;6.38;93.71;95387.97;5111391;28;20254;-71
2022/10/16 03:42:21;;;;;;;5.35;2.80;;;;;;;6.38;93.84;95387.97;5110781;28;20641;-71
2022/10/16 03:44:48;;;;;;;5.72;3.22;;;;;;;6.30;93.90;95385.88;5111344;28;20270;-71
2022/10/16 03:47:14;;;;;;;10.85;3.72;;;;;;;6.24;93.85;95387.00;5111021;28;20205;-71
2022/10/16 03:49:41;;;;;;;4.65;3.17;;;;;;;6.20;94.11;95385.16;5110362;28;20202;-71
2022/10/16 03:52:08;;;;;;;5.70;3.10;;;;;;;6.24;93.22;95376.25;5110330;28;20225;-71
2022/10/16 03:54:34;;;;;;;4.55;2.95;;;;;;;6.11;93.58;95379.59;5109686;28;20316;-71
2022/10/16 03:57:02;;;;;;;6.43;3.45;;;;;;;6.09;94.01;95379.06;5110735;28;20608;-71
2022/10/16 03:59:29;;;;;;;12.10;7.55;;;;;;;6.06;94.62;95376.91;5111086;28;20194;-71
2022/10/16 04:01:56;;;;;;;11.65;7.45;;;;;;;6.09;94.91;95376.38;5110235;28;20241;-71
2022/10/16 04:04:23;;;;;;;6.38;3.63;;;;;;;6.08;94.91;95374.75;5110554;28;20741;-71
2022/10/16 04:06:49;;;;;;;9.20;3.78;;;;;;;6.07;95.33;95373.16;5110388;28;20197;-71
2022/10/16 04:09:16;;;;;;;7.80;3.42;;;;;;;6.03;95.66;95377.47;5110961;28;20206;-71
2022/10/16 04:11:43;;;;;;;5.43;3.58;;;;;;;6.02;95.63;95378.56;5110211;28;20205;-71
2022/10/16 04:14:11;;;;;;;5.25;3.25;;;;;;;5.93;95.92;95380.25;5097661;28;20736;-71
2022/10/16 04:16:37;;;;;;;6.32;3.35;;;;;;;5.91;96.30;95377.03;5096176;28;20281;-70
2022/10/16 04:19:04;;;;;;;5.72;3.25;;;;;;;5.90;96.51;95386.16;5110512;28;20237;-71
2022/10/16 04:21:31;;;;;;;8.23;4.15;;;;;;;5.80;97.00;95380.84;5107525;28;20574;-72
2022/10/16 04:23:57;;;;;;;6.90;3.40;;;;;;;5.98;96.57;95385.59;5097273;28;20202;-72
2022/10/16 04:26:24;;;;;;;6.90;3.15;;;;;;;6.03;96.30;95383.66;5110020;28;20242;-72
2022/10/16 04:28:51;;;;;;;4.68;3.42;;;;;;;6.03;95.45;95385.53;5110320;28;20201;-71
2022/10/16 04:31:19;;;;;;;5.82;3.47;;;;;;;6.00;94.93;95380.75;5110338;28;20213;-72
2022/10/16 04:33:46;;;;;;;6.43;3.55;;;;;;;5.99;95.65;95396.06;5109954;28;20241;-72
2022/10/16 04:36:13;;;;;;;6.95;3.10;;;;;;;6.12;95.44;95394.66;5109805;28;20606;-72
2022/10/16 04:38:40;;;;;;;8.48;4.07;;;;;;;6.17;95.28;95391.09;5110199;28;20233;-72
2022/10/16 04:41:07;;;;;;;7.78;3.97;;;;;;;6.20;95.03;95398.59;5109141;28;20645;-71
2022/10/16 04:43:34;;;;;;;6.43;3.53;;;;;;;6.17;94.70;95402.66;5095274;28;20587;-71
2022/10/16 04:46:01;;;;;;;9.75;6.57;;;;;;;6.24;94.62;95392.41;5097695;28;20674;-72
2022/10/16 04:48:29;;;;;;;13.45;7.22;;;;;;;6.27;94.16;95401.78;5106554;28;20588;-70
2022/10/16 04:50:56;;;;;;;11.70;7.78;;;;;;;6.15;93.94;95402.13;5088663;28;20234;-70
2022/10/16 04:53:23;;;;;;;10.45;7.13;;;;;;;6.25;94.17;95415.53;5087672;28;20758;-72
2022/10/16 04:55:50;;;;;;;11.38;6.93;;;;;;;6.28;93.97;95419.53;5085600;28;20301;-71
2022/10/16 04:58:16;;;;;;;10.43;7.32;;;;;;;6.39;93.99;95416.50;5088925;28;20243;-70
2022/10/16 05:00:44;;;;;;;5.40;3.42;;;;;;;6.69;94.29;95414.63;5088402;28;20272;-72
2022/10/16 05:03:11;;;;;;;6.90;4.28;;;;;;;7.74;96.79;95411.81;5078849;28;20327;-72
2022/10/16 05:05:44;;;;;;;8.00;3.42;;;;;;;8.68;93.32;95408.25;5078894;28;20195;-71
2022/10/16 05:08:11;;;;;;;6.80;3.55;;;;;;;9.68;86.58;95412.06;5073254;28;20273;-72
2022/10/16 05:10:42;;;;;;;7.88;5.00;;;;;;;10.59;77.22;95404.59;5078475;28;20202;-73
2022/10/16 05:13:09;;;;;;;15.27;3.97;;;;;;;11.43;73.89;95392.94;5081125;28;20267;-74
2022/10/16 05:15:36;;;;;;;5.57;3.47;;;;;;;12.15;71.44;95395.22;5080797;28;20264;-74
2022/10/16 05:18:03;;;;;;;7.18;4.40;;;;;;;12.84;66.97;95395.19;5078508;28;20677;-71
2022/10/16 05:20:29;;;;;;;4.93;3.15;;;;;;;13.40;65.99;95402.22;5077457;28;20190;-72
2022/10/16 05:22:57;;;;;;;8.48;4.50;;;;;;;13.90;64.96;95405.06;5077533;28;20218;-72
2022/10/16 05:25:24;;;;;;;8.10;4.45;;;;;;;14.47;63.78;95408.06;5079122;28;20190;-71
2022/10/16 05:27:51;;;;;;;6.93;4.22;;;;;;;14.75;62.21;95405.59;5076019;28;20214;-71
2022/10/16 05:30:19;;;;;;;9.02;4.45;;;;;;;15.14;60.39;95404.25;5079583;28;20194;-72
2022/10/16 05:32:48;;;;;;;9.77;4.43;;;;;;;15.05;58.89;95399.97;5077789;28;20790;-73
2022/10/16 05:35:15;;;;;;;6.40;3.75;;;;;;;14.18;61.82;95408.88;5069532;28;20637;-73
2022/10/16 05:37:42;;;;;;;6.85;4.22;;;;;;;14.81;62.78;95404.22;5074982;28;20247;-74
2022/10/16 05:40:11;;;;;;;16.50;4.13;;;;;;;15.22;60.69;95402.53;5089316;28;20618;-73
2022/10/16 05:42:38;;;;;;;6.93;3.65;;;;;;;14.87;58.10;95402.91;5089283;28;20279;-72
2022/10/16 05:45:06;;;;;;;7.32;3.83;;;;;;;14.84;57.85;95405.50;5086196;28;20630;-73
2022/10/16 05:47:33;;;;;;;6.25;3.92;;;;;;;14.43;58.70;95403.59;5068696;28;20207;-73
2022/10/16 05:50:00;;;;;;;6.15;3.35;;;;;;;14.12;59.66;95418.38;5072940;28;20715;-72
2022/10/16 05:52:28;;;;;;;7.80;3.15;;;;;;;13.90;60.37;95418.69;5070712;28;20222;-71
2022/10/16 05:54:54;;;;;;;5.38;3.30;;;;;;;14.20;59.88;95420.25;5072730;28;20642;-72
2022/10/16 05:57:22;;;;;;;3.85;2.80;;;;;;;14.03;59.29;95423.09;5072283;28;20211;-71
2022/10/16 05:59:49;;;;;;;13.90;3.40;;;;;;;13.43;60.61;95426.88;5072450;28;20438;-71
2022/10/16 06:02:16;;;;;;;5.70;3.20;;;;;;;14.41;59.34;95435.84;5086841;28;20727;-73
2022/10/16 06:04:42;;;;;;;5.03;3.25;;;;;;;15.01;57.50;95438.09;5112957;28;20206;-72
2022/10/16 06:07:09;;;;;;;3.63;3.17;;;;;;;15.55;56.02;95430.63;5112593;28;20202;-73
2022/10/16 06:09:36;;;;;;;6.00;3.08;;;;;;;16.30;55.39;95433.00;5112511;28;20205;-71
2022/10/16 06:12:03;;;;;;;7.25;4.85;;;;;;;16.50;53.28;95437.56;5112659;28;20201;-71
2022/10/16 06:14:31;;;;;;;3.83;2.90;;;;;;;17.03;53.41;95439.13;5096667;28;20198;-74
2022/10/16 06:16:57;;;;;;;11.57;3.55;;;;;;;16.87;51.70;95432.78;5100119;28;20263;-73
2022/10/16 06:19:24;;;;;;;9.00;3.28;;;;;;;16.51;52.92;95439.16;5112317;28;20209;-73
2022/10/16 06:21:51;;;;;;;3.33;2.90;;;;;;;16.38;52.70;95447.72;5105964;28;20776;-73
2022/10/16 06:24:18;;;;;;;6.10;4.40;;;;;;;16.50;53.77;95442.22;5091317;28;20206;-72
2022/10/16 06:26:44;;;;;;;7.05;3.83;;;;;;;16.31;54.36;95451.00;5109666;28;20641;-71
2022/10/16 06:29:11;;;;;;;4.25;2.78;;;;;;;16.37;53.26;95454.31;5096269;28;20194;-71
2022/10/16 06:31:39;;;;;;;4.43;2.70;;;;;;;16.00;54.13;95449.66;5092317;28;20665;-71
2022/10/16 06:34:09;;;;;;;5.55;3.63;;;;;;;14.93;57.29;95452.59;5092440;28;20259;-72
2022/10/16 06:36:36;;;;;;;6.93;3.63;;;;;;;15.18;56.99;95458.94;5080660;28;20199;-73
2022/10/16 06:39:03;;;;;;;5.25;3.22;;;;;;;14.55;58.78;95464.44;5089852;28;20194;-72
2022/10/16 06:41:30;;;;;;;9.57;3.30;;;;;;;14.35;59.42;95462.47;5086577;28;20271;-73
2022/10/16 06:43:57;;;;;;;6.15;3.63;;;;;;;14.60;59.57;95474.38;5092950;28;20194;-73
2022/10/16 06:46:26;;;;;;;7.05;3.10;;;;;;;14.71;59.94;95464.66;5101434;28;20198;-73
2022/10/16 06:48:55;;;;;;;8.40;4.80;;;;;;;14.14;61.60;95475.25;5094418;28;20197;-73
2022/10/16 06:51:23;;;;;;;8.30;5.57;;;;;;;13.37;64.30;95479.09;5093084;28;20688;-73
2022/10/16 06:53:51;;;;;;;7.70;3.40;;;;;;;13.15;64.37;95485.53;5096134;28;20607;-73
2022/10/16 06:56:19;;;;;;;5.97;3.25;;;;;;;12.65;65.84;95491.47;5087863;28;20202;-73
2022/10/16 06:58:47;;;;;;;6.50;3.60;;;;;;;12.69;66.53;95492.44;5097276;28;20257;-74
2022/10/16 07:01:15;;;;;;;4.57;3.13;;;;;;;12.50;67.24;95494.66;5090819;28;20206;-73
2022/10/16 07:03:44;;;;;;;3.05;2.15;;;;;;;12.24;67.95;95502.75;5081456;28;20238;-73
2022/10/16 07:06:14;;;;;;;5.47;3.33;;;;;;;12.09;68.88;95497.75;5077049;28;20280;-72
2022/10/16 07:08:43;;;;;;;4.00;2.88;;;;;;;12.09;67.91;95501.28;5089067;28;20248;-72
2022/10/16 07:11:12;;;;;;;3.92;2.78;;;;;;;11.64;69.86;95503.31;5080376;28;20280;-72
2022/10/16 07:13:42;;;;;;;4.60;2.85;;;;;;;11.37;70.11;95500.78;5079184;28;20203;-72
2022/10/16 07:16:11;;;;;;;3.00;2.40;;;;;;;11.63;69.66;95509.03;5080206;28;20195;-74
2022/10/16 07:18:40;;;;;;;5.22;2.90;;;;;;;11.78;69.23;95511.38;5076081;28;20205;-73
2022/10/16 07:21:07;;;;;;;4.57;2.65;;;;;;;11.77;69.50;95508.97;5078551;28;20199;-74
2022/10/16 07:23:35;;;;;;;3.63;2.42;;;;;;;11.94;69.31;95504.44;5080966;28;20406;-73
2022/10/16 07:26:02;;;;;;;7.22;4.63;;;;;;;12.08;69.59;95507.81;5073166;28;20280;-72
2022/10/16 07:28:30;;;;;;;3.78;3.15;;;;;;;12.17;70.26;95513.28;5070498;28;20300;-72
2022/10/16 07:31:01;;;;;;;4.00;3.55;;;;;;;12.31;68.55;95513.16;5070489;28;20207;-72
2022/10/16 07:33:28;;;;;;;5.13;3.08;;;;;;;12.42;67.81;95514.47;5070924;28;20210;-72
2022/10/16 07:35:55;;;;;;;5.95;3.40;;;;;;;12.43;67.73;95510.63;5070876;28;20252;-70
2022/10/16 07:38:22;;;;;;;6.72;4.05;;;;;;;12.73;67.27;95509.69;5071097;28;20203;-70
2022/10/16 07:40:57;;;;;;;5.38;3.55;;;;;;;12.93;66.97;95507.47;5070798;28;20260;-71
2022/10/16 07:43:23;;;;;;;9.98;3.90;;;;;;;12.80;68.15;95507.31;5073382;28;20205;-70
2022/10/16 07:45:51;;;;;;;7.53;4.20;;;;;;;12.93;66.75;95512.91;5084661;28;20280;-71
2022/10/16 07:48:18;;;;;;;6.38;3.95;;;;;;;12.93;66.77;95513.69;5070815;28;20207;-72
2022/10/16 07:50:46;;;;;;;7.00;4.00;;;;;;;12.85;67.74;95505.56;5069930;28;20253;-70
2022/10/16 07:53:13;;;;;;;6.57;4.20;;;;;;;12.78;68.44;95508.75;5082771;28;20584;-72
2022/10/16 07:55:40;;;;;;;7.47;4.60;;;;;;;12.92;68.44;95516.75;5089833;28;20661;-71
2022/10/16 07:58:08;;;;;;;8.60;5.07;;;;;;;12.92;67.40;95511.28;5089983;28;20198;-70
2022/10/16 08:00:36;;;;;;;7.20;4.43;;;;;;;12.92;68.00;95508.56;5083658;28;20203;-70
2022/10/16 08:03:04;;;;;;;9.05;4.15;;;;;;;12.91;67.68;95515.13;5082006;28;20311;-69
2022/10/16 08:05:32;;;;;;;14.70;5.00;;;;;;;12.66;67.83;95514.81;5110018;28;20728;-70
2022/10/16 08:07:59;;;;;;;9.52;4.15;;;;;;;12.89;67.02;95517.38;5109841;28;20238;-72
2022/10/16 08:10:28;;;;;;;6.60;3.95;;;;;;;13.02;67.84;95519.94;5088284;28;20622;-72
2022/10/16 08:12:55;;;;;;;8.82;4.47;;;;;;;13.07;66.90;95518.97;5088047;28;20202;-72
2022/10/16 08:15:23;;;;;;;9.02;4.70;;;;;;;13.18;67.41;95509.38;5089910;28;20256;-72
2022/10/16 08:17:57;;;;;;;11.35;5.45;;;;;;;13.49;66.87;95504.53;5092113;28;20283;-73
2022/10/16 08:20:24;;;;;;;8.02;4.32;;;;;;;13.61;65.16;95505.78;5086759;28;20237;-73
2022/10/16 08:22:51;;;;;;;10.35;5.38;;;;;;;13.74;65.52;95510.22;5089311;28;20257;-74
2022/10/16 08:25:18;;;;;;;9.73;4.20;;;;;;;13.43;64.62;95488.69;5078878;28;20222;-71
2022/10/16 08:27:45;;;;;;;7.00;4.45;;;;;;;13.64;63.80;95505.13;5090944;28;20201;-70
2022/10/16 08:30:12;;;;;;;6.82;3.50;;;;;;;13.73;63.51;95508.63;5107012;28;20205;-72
2022/10/16 08:32:41;;;;;;;6.32;4.00;;;;;;;13.85;63.17;95500.56;5108287;28;20198;-71
2022/10/16 08:35:09;;;;;;;5.32;3.33;;;;;;;13.78;62.70;95497.56;5108379;28;20296;-72
2022/10/16 08:37:35;;;;;;;6.22;3.78;;;;;;;14.06;62.81;95501.44;5103821;28;20247;-71
2022/10/16 08:40:02;;;;;;;5.75;3.47;;;;;;;13.88;62.99;95502.63;5098887;28;20733;-71
2022/10/16 08:42:44;;;;;;;5.53;3.20;;;;;;;13.97;63.30;95503.38;5103678;28;20253;-72
2022/10/16 08:45:24;;;;;;;7.22;3.40;;;;;;;14.05;63.45;95504.50;5088591;28;20226;-73
2022/10/16 08:48:03;;;;;;;8.07;4.75;;;;;;;14.18;60.82;95507.00;5097377;28;20249;-73
2022/10/16 08:50:32;;;;;;;3.88;2.40;;;;;;;14.24;60.73;95508.38;5108492;28;20227;-73
2022/10/16 08:52:59;;;;;;;7.93;4.55;;;;;;;14.36;60.45;95509.59;5108046;28;20270;-71
2022/10/16 08:55:34;;;;;;;4.60;2.72;;;;;;;14.03;58.20;95515.72;5101775;28;20532;-72
2022/10/16 08:58:01;;;;;;;3.15;2.03;;;;;;;14.34;57.90;95511.88;5098044;28;20284;-72
2022/10/16 09:00:29;;;;;;;4.97;2.70;;;;;;;14.45;58.29;95507.66;5109224;28;20198;-73
2022/10/16 09:03:07;;;;;;;4.18;1.88;;;;;;;14.52;57.27;95516.13;5109074;28;20279;-74
2022/10/16 09:05:52;;;;;;;6.35;2.17;;;;;;;14.50;57.86;95510.19;5083826;28;20737;-73
2022/10/16 09:08:27;;;;;;;6.05;2.17;;;;;;;14.85;56.77;95513.50;5109208;28;20258;-72
2022/10/16 09:11:00;;;;;;;4.85;2.58;;;;;;;14.91;55.62;95509.41;5109274;28;20293;-72
2022/10/16 09:13:30;;;;;;;2.67;1.75;;;;;;;14.68;53.82;95511.69;5109310;28;20259;-72
2022/10/16 09:16:18;;;;;;;4.75;3.20;;;;;;;14.72;54.16;95501.72;5094948;28;20770;-74
2022/10/16 09:18:54;;;;;;;2.70;1.85;;;;;;;14.78;53.96;95505.81;5108576;28;20205;-73
2022/10/16 09:21:25;;;;;;;3.40;2.03;;;;;;;14.57;54.79;95499.56;5108076;28;20313;-72
2022/10/16 09:23:52;;;;;;;3.80;2.22;;;;;;;14.85;53.57;95495.19;5100146;28;20672;-72
2022/10/16 09:26:21;;;;;;;1.85;1.48;;;;;;;15.19;53.65;95505.00;5108835;28;20226;-73
2022/10/16 09:28:48;;;;;;;3.72;2.05;;;;;;;15.59;51.90;95502.53;5099431;28;20549;-73
2022/10/16 09:31:19;;;;;;;3.15;1.95;;;;;;;15.58;50.73;95500.19;5098680;28;20217;-74
2022/10/16 09:33:51;;;;;;;2.72;1.80;;;;;;;15.31;50.94;95512.44;5092567;28;20965;-74
2022/10/16 09:36:19;;;;;;;3.92;2.17;;;;;;;15.50;51.04;95496.34;5112497;28;20227;-72
2022/10/16 09:38:45;;;;;;;4.43;3.15;;;;;;;15.38;51.84;95501.78;5112556;28;20237;-73
2022/10/16 09:41:18;;;;;;;3.90;3.03;;;;;;;15.42;52.20;95508.16;5112035;28;20205;-71
2022/10/16 09:43:52;;;;;;;6.72;2.20;;;;;;;15.71;51.27;95493.59;5112552;28;20221;-74
2022/10/16 09:46:26;;;;;;;4.47;2.50;;;;;;;15.79;51.19;95494.63;5112450;28;20261;-72
2022/10/16 09:48:57;;;;;;;7.20;2.30;;;;;;;15.71;51.02;95499.06;5106436;28;20193;-71
2022/10/16 09:51:26;;;;;;;4.38;2.17;;;;;;;15.41;51.38;95495.66;5097325;28;20272;-71
2022/10/16 09:53:58;;;;;;;4.13;2.20;;;;;;;15.17;51.39;95485.44;5097231;28;20206;-70
2022/10/16 09:56:27;;;;;;;7.75;2.97;;;;;;;15.35;50.92;95493.47;5112000;28;20197;-71
2022/10/16 09:58:55;;;;;;;5.15;3.08;;;;;;;15.51;50.97;95480.75;5112136;28;20278;-72
2022/10/16 10:01:25;;;;;;;4.28;2.75;;;;;;;15.60;50.51;95481.50;5102944;28;20255;-70
2022/10/16 10:03:58;;;;;;;4.55;2.40;;;;;;;15.78;49.64;95482.91;5087496;28;20233;-72
2022/10/16 10:06:29;;;;;;;3.90;2.58;;;;;;;16.14;49.22;95470.38;5088059;28;20199;-71
2022/10/16 10:08:57;;;;;;;4.18;3.10;;;;;;;16.10;48.44;95478.50;5090416;28;20581;-71
2022/10/16 10:11:45;;;;;;;4.15;2.63;;;;;;;16.18;48.80;95474.84;5091955;28;20272;-73
2022/10/16 10:14:25;;;;;;;2.47;1.80;;;;;;;16.32;48.57;95469.81;5088306;28;20194;-71
2022/10/16 10:16:52;;;;;;;5.28;2.90;;;;;;;16.03;50.52;95472.78;5088497;28;20236;-70
2022/10/16 10:19:21;;;;;;;5.68;3.05;;;;;;;15.98;49.64;95465.63;5106318;28;20213;-71
2022/10/16 10:21:51;;;;;;;3.20;2.78;;;;;;;16.32;48.96;95469.81;5106785;28;20271;-72
2022/10/16 10:24:20;;;;;;;4.40;2.58;;;;;;;15.86;47.95;95473.00;5093346;28;20305;-71
2022/10/16 10:26:55;;;;;;;4.10;2.47;;;;;;;16.17;48.19;95462.31;5111545;28;20225;-72
2022/10/16 10:29:32;;;;;;;3.83;2.50;;;;;;;16.02;48.51;95471.19;5111932;28;20288;-73
2022/10/16 10:32:12;;;;;;;3.85;2.70;;;;;;;16.17;48.74;95456.84;5112439;28;20235;-71
2022/10/16 10:34:52;;;;;;;6.60;3.30;;;;;;;16.48;47.98;95453.50;5109688;28;20250;-72
2022/10/16 10:37:38;;;;;;;2.88;2.17;;;;;;;16.81;47.73;95458.03;5094725;28;20680;-72
2022/10/16 10:40:16;;;;;;;3.47;2.60;;;;;;;16.86;46.60;95442.16;5110836;28;20202;-72
2022/10/16 10:42:51;;;;;;;4.53;3.20;;;;;;;16.39;47.03;95446.56;5084069;28;20201;-72
2022/10/16 10:45:27;;;;;;;4.75;2.63;;;;;;;16.39;47.57;95436.44;5092581;28;20205;-72
2022/10/16 10:48:12;;;;;;;5.28;2.88;;;;;;;16.50;46.17;95444.97;5111076;28;20252;-69
2022/10/16 10:50:44;;;;;;;3.50;2.42;;;;;;;16.42;45.50;95445.88;5111417;28;20293;-70
2022/10/16 10:53:22;;;;;;;3.63;2.33;;;;;;;16.56;44.83;95438.88;5097790;28;20256;-70
2022/10/16 10:55:54;;;;;;;3.95;2.55;;;;;;;16.88;44.94;95441.81;5086274;28;20270;-71
2022/10/16 10:58:39;;;;;;;3.95;2.63;;;;;;;16.75;45.11;95432.84;5111017;28;20194;-71
2022/10/16 11:01:11;;;;;;;4.05;2.72;;;;;;;16.50;44.75;95434.81;5111423;28;20237;-72
2022/10/16 11:03:58;;;;;;;4.10;2.55;;;;;;;16.67;45.59;95425.56;5106448;28;20269;-72
2022/10/16 11:06:29;;;;;;;2.70;2.40;;;;;;;16.97;45.34;95429.56;5091703;28;20295;-73
2022/10/16 11:09:26;;;;;;;4.47;2.40;;;;;;;17.10;44.86;95427.56;5093469;28;20591;-72
2022/10/16 11:12:02;;;;;;;3.47;2.40;;;;;;;16.99;42.60;95413.59;5098388;28;20318;-72
2022/10/16 11:14:37;;;;;;;2.63;1.90;;;;;;;16.99;41.13;95419.06;5088968;28;20545;-72
2022/10/16 11:17:12;;;;;;;2.72;2.00;;;;;;;17.02;41.75;95415.63;5090567;28;20281;-72
2022/10/16 11:19:45;;;;;;;2.30;2.00;;;;;;;17.32;42.20;95407.03;5089174;28;20210;-72
2022/10/16 11:22:18;;;;;;;2.83;2.28;;;;;;;17.25;40.78;95426.00;5093929;28;20233;-72
2022/10/16 11:24:53;;;;;;;2.47;1.85;;;;;;;17.08;40.53;95412.66;5095927;28;20257;-72
2022/10/16 11:27:28;;;;;;;2.47;1.98;;;;;;;17.11;40.16;95414.66;5099177;28;20229;-70
2022/10/16 11:29:59;;;;;;;3.00;1.52;;;;;;;16.96;39.46;95411.53;5089595;28;20197;-71
2022/10/16 11:32:33;;;;;;;2.53;1.67;;;;;;;17.11;39.22;95407.25;5088734;28;20259;-71
2022/10/16 11:35:05;;;;;;;1.63;1.50;;;;;;;17.36;38.92;95407.91;5085641;28;20212;-71
2022/10/16 11:37:37;;;;;;;4.43;1.75;;;;;;;17.43;39.91;95402.63;5088306;28;20573;-70
2022/10/16 11:40:20;;;;;;;2.60;1.80;;;;;;;17.33;40.88;95414.13;5088761;28;20538;-71
2022/10/16 11:42:52;;;;;;;4.70;2.00;;;;;;;17.27;41.75;95410.03;5090395;28;20222;-72
2022/10/16 11:45:29;;;;;;;2.35;1.88;;;;;;;17.52;41.58;95395.03;5085837;28;20195;-70
2022/10/16 11:48:03;;;;;;;2.90;1.90;;;;;;;17.49;40.08;95401.22;5088215;28;20278;-71